Time;durP1;ratioP1;P1;durP2;ratioP2;P2;SDS_P1;SDS_P2;PMS_P1;PMS_P2;Temp;Humidity;BMP_temperature;BMP_pressure;BME280_temperature;BME280_humidity;BME280_pressure;Samples;Min_cycle;Max_cycle;Signal;HPM_P1;HPM_P2
2024/01/08 00:00:37;;;;;;;5.93;3.43;;;-1.80;99.90;;;;;;4993501;28;20678;-63
2024/01/08 00:03:06;;;;;;;7.77;4.23;;;-1.30;99.90;;;;;;4994495;28;20672;-63
2024/01/08 00:05:32;;;;;;;6.67;3.90;;;-1.70;99.90;;;;;;4991671;28;20216;-64
2024/01/08 00:07:59;;;;;;;8.10;3.90;;;-1.70;99.90;;;;;;4992585;28;20303;-63
2024/01/08 00:10:26;;;;;;;6.73;4.10;;;-1.70;99.90;;;;;;4961529;28;20208;-63
2024/01/08 00:12:53;;;;;;;4.60;3.80;;;-1.70;99.90;;;;;;4983678;28;20218;-63
2024/01/08 00:15:20;;;;;;;5.63;3.50;;;-1.70;99.90;;;;;;4997244;28;20210;-63
2024/01/08 00:17:47;;;;;;;6.43;3.60;;;-1.70;99.90;;;;;;4988507;28;20202;-63
2024/01/08 00:20:17;;;;;;;7.33;4.03;;;-1.70;99.90;;;;;;4996028;28;20311;-63
2024/01/08 00:22:43;;;;;;;4.57;3.30;;;-1.70;99.90;;;;;;4992564;28;20289;-63
2024/01/08 00:25:10;;;;;;;5.87;3.73;;;-1.60;99.90;;;;;;4961688;28;20642;-63
2024/01/08 00:27:37;;;;;;;9.23;3.23;;;-0.60;99.90;;;;;;5004938;28;20194;-63
2024/01/08 00:30:05;;;;;;;5.83;3.27;;;-1.60;99.90;;;;;;4990324;28;20211;-63
2024/01/08 00:32:32;;;;;;;5.90;3.47;;;-1.60;99.90;;;;;;4991042;28;20601;-63
2024/01/08 00:34:59;;;;;;;6.50;4.23;;;-1.70;99.90;;;;;;4997443;28;20240;-63
2024/01/08 00:37:27;;;;;;;5.37;3.30;;;-1.60;99.90;;;;;;4994637;28;20216;-63
2024/01/08 00:39:54;;;;;;;4.90;3.40;;;-1.70;99.90;;;;;;4998503;28;20202;-63
2024/01/08 00:42:21;;;;;;;6.67;3.47;;;-1.70;99.90;;;;;;4966538;28;20221;-63
2024/01/08 00:44:48;;;;;;;6.07;3.60;;;-1.70;99.90;;;;;;4984929;28;20206;-63
2024/01/08 00:47:15;;;;;;;5.83;3.53;;;-1.60;99.90;;;;;;4988749;28;20206;-63
2024/01/08 00:49:41;;;;;;;4.83;3.27;;;-1.70;99.90;;;;;;4999322;28;20202;-63
2024/01/08 00:52:09;;;;;;;4.00;3.33;;;;;;;;;;4990355;28;20190;-63
2024/01/08 00:54:37;;;;;;;6.67;4.20;;;-1.60;99.90;;;;;;4992482;28;20240;-63
2024/01/08 00:57:04;;;;;;;7.47;3.63;;;-1.70;99.90;;;;;;4957342;28;20222;-63
2024/01/08 00:59:31;;;;;;;5.27;3.70;;;-1.60;99.90;;;;;;4987375;28;20397;-64
2024/01/08 01:01:58;;;;;;;5.97;3.73;;;-1.60;99.90;;;;;;4990592;28;20241;-63
2024/01/08 01:04:25;;;;;;;7.97;3.50;;;;;;;;;;4989587;28;20506;-63
2024/01/08 01:06:52;;;;;;;4.80;3.43;;;-1.70;99.90;;;;;;4998041;28;20205;-63
2024/01/08 01:09:19;;;;;;;7.60;3.43;;;-1.70;99.90;;;;;;4987638;28;20210;-64
2024/01/08 01:11:47;;;;;;;6.73;4.33;;;-1.70;99.90;;;;;;5001639;28;20194;-63
2024/01/08 01:14:14;;;;;;;5.43;4.00;;;;;;;;;;4950621;28;20230;-63
2024/01/08 01:16:41;;;;;;;7.97;3.77;;;-1.70;99.90;;;;;;4999073;28;20194;-63
2024/01/08 01:19:08;;;;;;;5.50;3.40;;;-1.70;99.90;;;;;;4992371;28;20202;-63
2024/01/08 01:21:35;;;;;;;5.80;3.50;;;-0.90;99.90;;;;;;5000717;28;20606;-63
2024/01/08 01:24:04;;;;;;;5.00;3.60;;;-1.70;99.90;;;;;;4993103;28;20206;-63
2024/01/08 01:26:31;;;;;;;5.60;3.77;;;-1.70;99.90;;;;;;4996580;28;20970;-63
2024/01/08 01:28:59;;;;;;;4.87;3.27;;;-1.70;99.90;;;;;;4965401;28;20217;-63
2024/01/08 01:31:26;;;;;;;5.00;3.20;;;-1.80;99.90;;;;;;4989767;28;20252;-63
2024/01/08 01:33:53;;;;;;;9.27;4.07;;;-1.70;99.90;;;;;;5002664;28;20324;-63
2024/01/08 01:36:20;;;;;;;6.33;3.70;;;-1.90;99.90;;;;;;4988414;28;20202;-63
2024/01/08 01:38:47;;;;;;;4.50;2.97;;;-1.70;99.90;;;;;;5003693;28;20206;-63
2024/01/08 01:41:14;;;;;;;5.83;3.83;;;-1.70;99.90;;;;;;4996967;28;20578;-65
2024/01/08 01:43:41;;;;;;;7.70;3.30;;;-1.70;99.90;;;;;;4970538;28;20206;-63
2024/01/08 01:46:23;;;;;;;5.47;3.73;;;-1.80;99.90;;;;;;4992720;28;20293;-63
2024/01/08 01:48:51;;;;;;;5.53;3.60;;;-1.80;99.90;;;;;;5002049;28;20230;-63
2024/01/08 01:51:18;;;;;;;5.80;3.63;;;-1.70;99.90;;;;;;4990477;28;20631;-63
2024/01/08 01:53:46;;;;;;;5.70;2.73;;;-1.70;99.90;;;;;;4998463;28;20239;-63
2024/01/08 01:56:14;;;;;;;5.03;3.00;;;-1.70;99.90;;;;;;4979363;28;20202;-63
2024/01/08 01:58:41;;;;;;;6.80;3.63;;;-1.70;99.90;;;;;;4958214;28;20226;-63
2024/01/08 02:01:10;;;;;;;6.20;3.07;;;-1.30;99.90;;;;;;4994229;28;20203;-63
2024/01/08 02:03:37;;;;;;;6.47;3.00;;;-1.70;99.90;;;;;;4983529;28;20278;-63
2024/01/08 02:06:07;;;;;;;3.77;2.80;;;-1.80;99.90;;;;;;4981087;28;20205;-63
2024/01/08 02:08:35;;;;;;;6.80;3.87;;;-1.70;99.90;;;;;;4984084;28;20330;-63
2024/01/08 02:11:02;;;;;;;3.57;2.67;;;-1.80;99.90;;;;;;4994506;28;20683;-63
2024/01/08 02:13:30;;;;;;;5.47;2.73;;;;;;;;;;4991559;28;20331;-63
2024/01/08 02:15:57;;;;;;;5.00;3.20;;;-1.70;99.90;;;;;;4954636;28;20206;-63
2024/01/08 02:18:25;;;;;;;4.33;2.73;;;-1.10;99.90;;;;;;4981716;28;20376;-63
2024/01/08 02:20:52;;;;;;;3.70;2.80;;;-1.80;99.90;;;;;;4984481;28;20201;-63
2024/01/08 02:23:20;;;;;;;4.07;2.50;;;-1.80;99.90;;;;;;4986746;28;20324;-63
2024/01/08 02:25:47;;;;;;;6.60;2.40;;;-1.70;99.90;;;;;;4989622;28;20672;-64
2024/01/08 02:28:14;;;;;;;2.87;2.40;;;;;;;;;;4984898;28;20216;-63
2024/01/08 02:30:41;;;;;;;4.17;2.63;;;-1.00;99.90;;;;;;4956671;28;20229;-63
2024/01/08 02:33:08;;;;;;;3.13;1.93;;;-1.80;99.90;;;;;;4980953;28;20214;-63
2024/01/08 02:35:36;;;;;;;4.40;3.00;;;-1.70;99.90;;;;;;4988205;28;20904;-64
2024/01/08 02:38:03;;;;;;;6.07;3.00;;;-1.70;99.90;;;;;;4978698;28;20210;-63
2024/01/08 02:40:32;;;;;;;4.03;2.33;;;-1.10;99.90;;;;;;4990079;28;20285;-63
2024/01/08 02:42:59;;;;;;;4.57;2.00;;;-1.00;99.90;;;;;;4989595;28;20194;-64
2024/01/08 02:45:25;;;;;;;5.27;2.23;;;-1.70;99.90;;;;;;4946268;28;20214;-63
2024/01/08 02:47:52;;;;;;;4.20;2.50;;;-1.70;99.90;;;;;;4989273;28;20195;-63
2024/01/08 02:50:19;;;;;;;8.67;2.60;;;-1.70;99.90;;;;;;4981078;28;20302;-63
2024/01/08 02:52:46;;;;;;;5.80;2.33;;;-1.70;99.90;;;;;;4985054;28;20208;-63
2024/01/08 02:55:13;;;;;;;4.57;2.70;;;-1.70;99.90;;;;;;4991319;28;20226;-63
2024/01/08 02:57:41;;;;;;;3.30;2.67;;;-1.70;99.90;;;;;;4992204;28;20503;-63
2024/01/08 03:00:09;;;;;;;4.60;2.90;;;-1.40;99.90;;;;;;4990781;28;20239;-63
2024/01/08 03:02:37;;;;;;;3.97;2.10;;;-0.80;99.90;;;;;;4952749;28;20229;-63
2024/01/08 03:05:04;;;;;;;4.03;2.80;;;-1.70;99.90;;;;;;4989087;28;20199;-63
2024/01/08 03:07:31;;;;;;;4.97;2.27;;;;;;;;;;4987365;28;20951;-64
2024/01/08 03:09:59;;;;;;;3.53;2.33;;;-1.70;99.90;;;;;;4994761;28;20238;-63
2024/01/08 03:12:26;;;;;;;3.80;2.40;;;-1.60;99.90;;;;;;4997046;28;20344;-63
2024/01/08 03:14:55;;;;;;;3.33;2.27;;;-2.30;99.90;;;;;;4986121;28;20256;-63
2024/01/08 03:17:21;;;;;;;4.33;2.63;;;-1.60;99.90;;;;;;4958883;28;20703;-63
2024/01/08 03:19:48;;;;;;;4.00;2.77;;;-1.60;99.90;;;;;;4981476;28;20425;-63
2024/01/08 03:22:15;;;;;;;3.47;3.03;;;-1.70;99.90;;;;;;4994623;28;20579;-63
2024/01/08 03:24:42;;;;;;;7.63;3.10;;;-1.70;99.90;;;;;;4982391;28;21405;-63
2024/01/08 03:27:09;;;;;;;4.33;2.97;;;-1.70;99.90;;;;;;4999176;28;20202;-63
2024/01/08 03:29:35;;;;;;;4.33;3.00;;;-1.80;99.90;;;;;;4989341;28;20285;-63
2024/01/08 03:32:04;;;;;;;4.13;2.67;;;-1.70;99.90;;;;;;5002819;28;20981;-63
2024/01/08 03:34:32;;;;;;;5.97;3.30;;;-1.70;99.90;;;;;;4951733;28;20229;-63
2024/01/08 03:36:59;;;;;;;4.37;3.10;;;-3.40;99.90;;;;;;4993837;28;20344;-64
2024/01/08 03:39:26;;;;;;;3.80;2.73;;;-1.60;99.90;;;;;;4989624;28;20776;-63
2024/01/08 03:41:52;;;;;;;4.87;2.63;;;-1.30;99.90;;;;;;4993492;28;20351;-63
2024/01/08 03:44:19;;;;;;;5.43;3.00;;;-1.80;99.90;;;;;;5001697;28;20208;-63
2024/01/08 03:46:47;;;;;;;3.17;2.73;;;-1.90;99.90;;;;;;4991406;28;20233;-63
2024/01/08 03:49:15;;;;;;;4.87;3.33;;;-1.80;99.90;;;;;;4964630;28;20217;-63
2024/01/08 03:51:42;;;;;;;4.67;2.70;;;-2.40;99.90;;;;;;4984927;28;20195;-63
2024/01/08 03:54:09;;;;;;;4.80;2.73;;;-1.80;99.90;;;;;;4987983;28;20662;-63
2024/01/08 03:56:36;;;;;;;5.27;2.63;;;-1.80;99.90;;;;;;4992565;28;20717;-63
2024/01/08 03:59:03;;;;;;;5.07;3.20;;;-1.90;99.90;;;;;;4988686;28;21221;-63
2024/01/08 04:01:30;;;;;;;5.20;3.10;;;-1.80;99.90;;;;;;4988063;28;20199;-63
2024/01/08 04:03:57;;;;;;;3.83;2.60;;;-1.80;99.90;;;;;;4956603;28;20765;-63
2024/01/08 04:06:25;;;;;;;4.07;2.57;;;-1.90;99.90;;;;;;4979254;28;20206;-63
2024/01/08 04:08:52;;;;;;;3.77;2.53;;;-1.80;99.90;;;;;;4982126;28;20323;-63
2024/01/08 04:11:19;;;;;;;7.47;2.63;;;-1.80;99.90;;;;;;5001575;28;20246;-63
2024/01/08 04:13:45;;;;;;;7.30;2.90;;;-2.40;99.90;;;;;;5006440;28;20397;-63
2024/01/08 04:16:12;;;;;;;3.23;2.93;;;-1.80;99.90;;;;;;4997954;28;20211;-63
2024/01/08 04:18:39;;;;;;;3.60;2.30;;;-1.70;99.90;;;;;;4966286;28;20749;-64
2024/01/08 04:21:06;;;;;;;5.03;2.50;;;-1.70;99.90;;;;;;5002101;28;20198;-63
2024/01/08 04:23:34;;;;;;;3.97;2.73;;;-1.70;99.90;;;;;;4992936;28;20207;-63
2024/01/08 04:26:01;;;;;;;4.23;2.50;;;-2.50;99.90;;;;;;4986325;28;20683;-64
2024/01/08 04:28:28;;;;;;;3.93;2.93;;;-1.70;99.90;;;;;;5001364;28;20199;-63
2024/01/08 04:30:54;;;;;;;4.33;2.53;;;-1.30;99.90;;;;;;4993408;28;21003;-63
2024/01/08 04:33:21;;;;;;;2.90;2.23;;;-1.80;99.90;;;;;;4994770;28;20413;-63
2024/01/08 04:35:48;;;;;;;3.43;2.53;;;-1.70;99.90;;;;;;4975712;28;20323;-63
2024/01/08 04:38:15;;;;;;;9.23;3.00;;;-1.70;99.90;;;;;;4990256;28;20684;-63
2024/01/08 04:40:43;;;;;;;3.80;2.90;;;-1.80;99.90;;;;;;4972881;28;20230;-63
2024/01/08 04:43:10;;;;;;;4.70;2.40;;;-1.70;99.90;;;;;;5001472;28;20207;-63
2024/01/08 04:45:37;;;;;;;3.83;2.40;;;-1.80;99.90;;;;;;4975778;28;23136;-63
2024/01/08 04:48:04;;;;;;;3.13;2.70;;;-1.70;99.90;;;;;;4991731;28;20211;-63
2024/01/08 04:50:31;;;;;;;3.23;2.33;;;-1.80;99.90;;;;;;4955389;28;20374;-63
2024/01/08 04:52:59;;;;;;;3.37;2.23;;;-1.70;99.90;;;;;;4985504;28;20198;-63
2024/01/08 04:55:26;;;;;;;3.27;2.67;;;-3.10;99.90;;;;;;4966646;28;20514;-63
2024/01/08 04:57:54;;;;;;;5.40;2.73;;;-0.80;99.90;;;;;;4992394;28;20228;-63
2024/01/08 05:00:21;;;;;;;4.17;2.57;;;-1.40;99.90;;;;;;4992457;28;20209;-63
2024/01/08 05:02:48;;;;;;;4.97;2.97;;;-1.70;99.90;;;;;;4990074;28;20823;-63
2024/01/08 05:05:14;;;;;;;4.23;2.40;;;-1.70;99.90;;;;;;4954283;28;20234;-63
2024/01/08 05:07:41;;;;;;;4.03;2.80;;;-1.70;99.90;;;;;;4982284;28;20222;-63
2024/01/08 05:10:09;;;;;;;9.13;2.90;;;-1.60;99.90;;;;;;4982661;28;20219;-63
2024/01/08 05:12:35;;;;;;;4.70;2.97;;;-1.60;99.90;;;;;;4991062;28;20249;-63
2024/01/08 05:15:04;;;;;;;8.50;2.80;;;-1.60;99.90;;;;;;4980572;28;20244;-63
2024/01/08 05:17:31;;;;;;;5.10;2.50;;;-1.60;99.90;;;;;;4988773;28;20225;-63
2024/01/08 05:19:58;;;;;;;5.27;3.13;;;-1.60;99.90;;;;;;4987755;28;20501;-63
2024/01/08 05:22:25;;;;;;;5.20;2.93;;;-1.60;99.90;;;;;;4952814;28;20214;-63
2024/01/08 05:24:52;;;;;;;5.17;2.80;;;-1.60;99.90;;;;;;4971645;28;21177;-64
2024/01/08 05:27:19;;;;;;;6.20;3.00;;;-1.40;99.90;;;;;;4982538;28;20218;-64
2024/01/08 05:29:46;;;;;;;4.47;3.23;;;-0.70;99.90;;;;;;4996310;28;20294;-63
2024/01/08 05:32:14;;;;;;;5.30;2.60;;;-1.60;99.90;;;;;;4998201;28;20289;-64
2024/01/08 05:34:41;;;;;;;4.00;2.77;;;-1.60;99.90;;;;;;4986963;28;20226;-63
2024/01/08 05:37:08;;;;;;;2.97;2.10;;;-1.50;99.90;;;;;;4967923;28;20219;-63
2024/01/08 05:39:35;;;;;;;6.80;3.23;;;-1.50;99.90;;;;;;4974650;28;20253;-63
2024/01/08 05:42:02;;;;;;;4.10;2.60;;;-1.60;99.90;;;;;;4970297;28;20723;-64
2024/01/08 05:44:29;;;;;;;3.30;2.30;;;;;;;;;;4998446;28;20199;-63
2024/01/08 05:46:56;;;;;;;9.60;2.70;;;-0.80;99.90;;;;;;4995829;28;20209;-63
2024/01/08 05:49:24;;;;;;;7.43;2.40;;;-1.30;99.90;;;;;;4998817;28;20219;-63
2024/01/08 05:51:51;;;;;;;4.33;2.23;;;-1.50;99.90;;;;;;4943495;28;20485;-63
2024/01/08 05:54:18;;;;;;;4.30;2.53;;;-1.50;99.90;;;;;;4975718;28;20213;-63
2024/01/08 05:56:45;;;;;;;5.57;3.00;;;-1.50;99.90;;;;;;4976821;28;20268;-63
2024/01/08 05:59:12;;;;;;;2.93;2.63;;;-1.50;99.90;;;;;;4996054;28;20203;-64
2024/01/08 06:01:39;;;;;;;4.80;2.77;;;-1.40;99.90;;;;;;4992944;28;20210;-63
2024/01/08 06:04:07;;;;;;;3.90;2.47;;;-1.50;99.90;;;;;;4992041;28;20219;-63
2024/01/08 06:06:36;;;;;;;4.73;2.23;;;-1.40;99.90;;;;;;4960120;28;20220;-63
2024/01/08 06:09:02;;;;;;;4.33;2.83;;;-1.40;99.90;;;;;;4976160;28;20429;-63
2024/01/08 06:11:29;;;;;;;4.93;2.90;;;-1.40;99.90;;;;;;4967845;28;20223;-63
2024/01/08 06:13:56;;;;;;;4.47;2.30;;;-1.60;99.90;;;;;;4977436;28;20701;-63
2024/01/08 06:16:23;;;;;;;7.17;3.20;;;-0.90;99.90;;;;;;4995250;28;20228;-63
2024/01/08 06:18:50;;;;;;;7.43;2.70;;;-0.90;99.90;;;;;;4979109;28;20221;-63
2024/01/08 06:21:17;;;;;;;6.23;2.50;;;-1.10;99.90;;;;;;4985537;28;20818;-63
2024/01/08 06:23:45;;;;;;;3.33;2.23;;;0.60;99.90;;;;;;4954240;28;20328;-63
2024/01/08 06:26:12;;;;;;;4.07;2.67;;;-1.00;99.90;;;;;;4981968;28;20243;-63
2024/01/08 06:28:39;;;;;;;4.60;2.37;;;-1.00;99.90;;;;;;4991760;28;20530;-63
2024/01/08 06:31:06;;;;;;;6.83;2.47;;;-1.20;99.90;;;;;;4984625;28;20257;-63
2024/01/08 06:33:33;;;;;;;4.67;2.43;;;-1.10;99.90;;;;;;5003010;28;20198;-63
2024/01/08 06:36:00;;;;;;;4.57;2.33;;;-1.20;99.90;;;;;;4991551;28;20346;-63
2024/01/08 06:38:27;;;;;;;3.63;2.50;;;-1.20;99.90;;;;;;4966601;28;20210;-63
2024/01/08 06:40:55;;;;;;;4.53;2.70;;;-1.40;99.90;;;;;;4993682;28;20207;-63
2024/01/08 06:43:22;;;;;;;7.30;2.50;;;-1.30;99.90;;;;;;4985217;28;20214;-63
2024/01/08 06:45:50;;;;;;;9.17;2.77;;;-1.30;99.90;;;;;;4967282;28;20326;-63
2024/01/08 06:48:16;;;;;;;6.77;2.83;;;-1.20;99.90;;;;;;4968994;28;20223;-63
2024/01/08 06:50:43;;;;;;;3.30;2.20;;;-1.20;99.90;;;;;;4993384;28;20681;-63
2024/01/08 06:53:10;;;;;;;10.77;2.73;;;;;;;;;;4986004;28;20223;-63
2024/01/08 06:55:37;;;;;;;4.30;1.97;;;-1.30;99.90;;;;;;4962217;28;20251;-63
2024/01/08 06:58:05;;;;;;;4.90;2.50;;;-1.20;99.90;;;;;;4998149;28;20768;-63
2024/01/08 07:00:32;;;;;;;5.00;2.70;;;-1.30;99.90;;;;;;4991088;28;20759;-63
2024/01/08 07:02:59;;;;;;;4.33;2.80;;;-1.20;99.90;;;;;;4990302;28;20208;-63
2024/01/08 07:05:27;;;;;;;3.57;2.57;;;-1.20;99.90;;;;;;5000500;28;20774;-63
2024/01/08 07:07:54;;;;;;;2.53;2.00;;;;;;;;;;4994504;28;20199;-63
2024/01/08 07:10:21;;;;;;;3.30;2.53;;;-1.30;99.90;;;;;;4967641;28;20686;-63
2024/01/08 07:12:48;;;;;;;7.37;2.60;;;-1.30;99.90;;;;;;5001150;28;20202;-63
2024/01/08 07:15:37;;;;;;;3.13;2.43;;;-1.20;99.90;;;;;;4991032;28;20218;-63
2024/01/08 07:18:05;;;;;;;4.30;2.20;;;-1.20;99.90;;;;;;4993255;28;20237;-63
2024/01/08 07:20:31;;;;;;;4.03;2.33;;;-1.30;99.90;;;;;;5001385;28;20203;-63
2024/01/08 07:22:59;;;;;;;7.57;2.70;;;;;;;;;;5001247;28;20410;-63
2024/01/08 07:25:25;;;;;;;4.57;2.50;;;-1.30;99.90;;;;;;4969382;28;20212;-63
2024/01/08 07:27:52;;;;;;;3.90;2.33;;;-1.20;99.90;;;;;;4991229;28;20215;-63
2024/01/08 07:30:20;;;;;;;6.77;2.73;;;-1.20;99.90;;;;;;4990297;28;20250;-63
2024/01/08 07:32:49;;;;;;;4.13;2.30;;;-1.30;99.90;;;;;;4995921;28;20199;-63
2024/01/08 07:35:15;;;;;;;3.20;2.27;;;-1.20;99.90;;;;;;5004284;28;20510;-63
2024/01/08 07:37:42;;;;;;;9.07;2.83;;;-1.20;99.90;;;;;;5000288;28;20211;-63
2024/01/08 07:40:10;;;;;;;3.43;2.43;;;-1.20;99.90;;;;;;5005204;28;20204;-63
2024/01/08 07:42:37;;;;;;;3.07;2.23;;;-1.20;99.90;;;;;;4973807;28;20207;-62
2024/01/08 07:45:04;;;;;;;4.80;2.47;;;-1.10;99.90;;;;;;5003822;28;20200;-63
2024/01/08 07:47:31;;;;;;;10.43;2.83;;;-1.20;99.90;;;;;;4998857;28;20219;-63
2024/01/08 07:50:00;;;;;;;3.40;2.73;;;-1.20;99.90;;;;;;4984864;28;20518;-63
2024/01/08 07:52:28;;;;;;;6.03;3.17;;;-0.30;99.90;;;;;;5001338;28;20297;-63
2024/01/08 07:54:55;;;;;;;6.97;2.80;;;-1.20;99.90;;;;;;4985730;28;20198;-63
2024/01/08 07:57:21;;;;;;;3.67;2.23;;;-1.10;99.90;;;;;;4964637;28;20236;-63
2024/01/08 07:59:48;;;;;;;3.30;2.50;;;-0.50;99.90;;;;;;4996112;28;20905;-63
2024/01/08 08:02:15;;;;;;;4.00;2.50;;;-0.80;99.90;;;;;;4981864;28;20213;-63
2024/01/08 08:04:42;;;;;;;4.37;2.60;;;-1.10;99.90;;;;;;4989523;28;20658;-62
2024/01/08 08:07:10;;;;;;;2.83;2.43;;;-1.30;99.90;;;;;;5001038;28;20584;-63
2024/01/08 08:09:37;;;;;;;6.37;2.40;;;-1.10;99.90;;;;;;5000875;28;20218;-63
2024/01/08 08:12:04;;;;;;;3.33;2.27;;;-0.70;99.90;;;;;;4991859;28;20204;-63
2024/01/08 08:14:31;;;;;;;12.03;2.63;;;-1.00;99.90;;;;;;4977581;28;20297;-63
2024/01/08 08:16:58;;;;;;;5.10;2.93;;;-1.00;99.90;;;;;;4992799;28;20253;-63
2024/01/08 08:19:25;;;;;;;8.83;3.00;;;-1.00;99.90;;;;;;4992037;28;20765;-63
2024/01/08 08:21:52;;;;;;;4.83;2.43;;;-1.00;99.90;;;;;;5005606;28;20205;-63
2024/01/08 08:24:20;;;;;;;2.80;2.03;;;0.10;99.90;;;;;;4996095;28;20678;-63
2024/01/08 08:26:47;;;;;;;5.27;2.63;;;-1.00;99.90;;;;;;5000156;28;20228;-63
2024/01/08 08:29:14;;;;;;;7.70;2.50;;;-1.00;99.90;;;;;;4963705;28;20229;-63
2024/01/08 08:31:41;;;;;;;3.57;2.10;;;-0.90;99.90;;;;;;5003763;28;20203;-63
2024/01/08 08:34:09;;;;;;;7.80;2.00;;;-0.60;99.90;;;;;;4985572;28;20201;-63
2024/01/08 08:36:37;;;;;;;6.47;2.77;;;-0.90;99.90;;;;;;4992357;28;20569;-62
2024/01/08 08:39:05;;;;;;;4.97;2.30;;;-0.40;99.90;;;;;;4992515;28;20216;-63
2024/01/08 08:41:33;;;;;;;4.00;2.40;;;-0.90;99.90;;;;;;5001978;28;20674;-63
2024/01/08 08:44:00;;;;;;;2.77;2.33;;;-0.90;99.90;;;;;;4962961;28;20555;-63
2024/01/08 08:46:27;;;;;;;3.23;2.10;;;-0.90;99.90;;;;;;4997604;28;21080;-63
2024/01/08 08:48:53;;;;;;;2.67;2.00;;;-0.80;99.90;;;;;;4990820;28;20214;-63
2024/01/08 08:51:20;;;;;;;4.67;2.77;;;-0.80;99.90;;;;;;4985799;28;20613;-63
2024/01/08 08:53:47;;;;;;;3.30;2.50;;;-1.60;99.90;;;;;;4998926;28;20199;-63
2024/01/08 08:56:14;;;;;;;5.83;2.73;;;-0.80;99.90;;;;;;4985536;28;20225;-63
2024/01/08 08:58:42;;;;;;;5.30;2.47;;;-0.70;99.90;;;;;;4959633;28;20232;-63
2024/01/08 09:01:11;;;;;;;5.47;2.57;;;-0.70;99.90;;;;;;4997355;28;20222;-62
2024/01/08 09:03:38;;;;;;;2.20;1.60;;;-0.80;99.90;;;;;;4994935;28;20203;-62
2024/01/08 09:06:05;;;;;;;6.23;2.43;;;0.00;99.90;;;;;;4988060;28;20241;-62
2024/01/08 09:08:32;;;;;;;4.03;1.97;;;-0.70;99.90;;;;;;4983277;28;20733;-62
2024/01/08 09:10:59;;;;;;;5.47;2.67;;;-0.70;99.90;;;;;;4987708;28;20202;-62
2024/01/08 09:13:26;;;;;;;3.23;2.00;;;-0.70;99.90;;;;;;4958866;28;21234;-63
2024/01/08 09:15:54;;;;;;;3.13;2.20;;;-0.40;99.90;;;;;;4984573;28;20745;-62
2024/01/08 09:18:21;;;;;;;3.97;2.17;;;-0.60;99.90;;;;;;4991820;28;20331;-62
2024/01/08 09:20:48;;;;;;;4.37;2.13;;;-0.70;99.90;;;;;;4988887;28;20208;-62
2024/01/08 09:23:14;;;;;;;3.10;1.63;;;-0.30;99.90;;;;;;4982940;28;21067;-62
2024/01/08 09:25:41;;;;;;;4.10;1.70;;;-0.60;99.90;;;;;;4986455;28;20201;-62
2024/01/08 09:28:08;;;;;;;2.67;1.80;;;-0.50;99.90;;;;;;4996392;28;20206;-62
2024/01/08 09:30:35;;;;;;;3.87;2.40;;;-0.50;99.90;;;;;;4964525;28;20214;-62
2024/01/08 09:33:04;;;;;;;2.07;1.80;;;-0.50;99.90;;;;;;4992249;28;20195;-62
2024/01/08 09:35:30;;;;;;;3.07;2.33;;;-0.50;99.90;;;;;;4987189;28;20692;-62
2024/01/08 09:37:57;;;;;;;2.50;1.70;;;-0.50;99.90;;;;;;4981558;28;20240;-63
2024/01/08 09:40:24;;;;;;;5.13;2.20;;;-0.50;99.90;;;;;;4990045;28;20207;-63
2024/01/08 09:42:53;;;;;;;3.47;2.53;;;-0.40;99.90;;;;;;4982642;28;20227;-62
2024/01/08 09:45:23;;;;;;;4.70;2.60;;;-0.50;99.90;;;;;;4958712;28;20771;-63
2024/01/08 09:47:52;;;;;;;5.60;3.23;;;0.30;99.90;;;;;;5003639;28;20945;-63
2024/01/08 09:50:21;;;;;;;7.00;3.00;;;-0.40;99.90;;;;;;5003126;28;20710;-62
2024/01/08 09:52:48;;;;;;;6.43;2.03;;;-0.40;99.90;;;;;;4990888;28;20209;-62
2024/01/08 09:55:16;;;;;;;4.03;2.50;;;-0.40;99.90;;;;;;4991334;28;20206;-63
2024/01/08 09:57:43;;;;;;;3.83;2.63;;;-0.40;99.90;;;;;;4992234;28;20233;-63
2024/01/08 10:00:11;;;;;;;3.23;2.43;;;-0.30;99.90;;;;;;4965587;28;20820;-63
2024/01/08 10:02:39;;;;;;;4.30;2.40;;;-0.40;99.90;;;;;;5006628;28;20208;-63
2024/01/08 10:05:07;;;;;;;3.00;2.10;;;-0.10;99.90;;;;;;4998115;28;20467;-63
2024/01/08 10:07:36;;;;;;;5.70;2.67;;;-0.30;99.90;;;;;;4996836;28;20335;-63
2024/01/08 10:10:03;;;;;;;8.10;2.97;;;-0.10;99.90;;;;;;4992351;28;20208;-63
2024/01/08 10:12:33;;;;;;;3.70;2.10;;;-0.30;99.90;;;;;;4991683;28;20208;-64
2024/01/08 10:15:00;;;;;;;2.80;2.30;;;-0.40;99.90;;;;;;4970592;28;20208;-63
2024/01/08 10:17:27;;;;;;;5.67;2.80;;;-0.30;99.90;;;;;;4996767;28;20235;-63
2024/01/08 10:20:06;;;;;;;4.07;2.60;;;-0.60;99.90;;;;;;4997364;28;20210;-63
2024/01/08 10:22:35;;;;;;;4.43;2.50;;;-0.30;99.90;;;;;;4987678;28;20311;-63
2024/01/08 10:25:03;;;;;;;4.17;2.30;;;-0.30;99.90;;;;;;4986668;28;20210;-63
2024/01/08 10:27:31;;;;;;;4.87;3.00;;;-0.30;99.90;;;;;;4989415;28;20202;-63
2024/01/08 10:29:58;;;;;;;7.30;2.17;;;-0.30;99.90;;;;;;4998486;28;20205;-63
2024/01/08 10:32:25;;;;;;;2.63;2.00;;;-0.30;99.90;;;;;;4965379;28;20706;-63
2024/01/08 10:34:52;;;;;;;4.03;2.30;;;-0.30;99.90;;;;;;5002655;28;20667;-63
2024/01/08 10:37:19;;;;;;;6.90;2.57;;;-0.20;99.90;;;;;;4988534;28;20560;-63
2024/01/08 10:39:48;;;;;;;4.53;2.40;;;-0.20;99.90;;;;;;5002234;28;20346;-63
2024/01/08 10:42:15;;;;;;;3.03;2.13;;;-0.10;99.90;;;;;;4982877;28;20230;-63
2024/01/08 10:44:42;;;;;;;3.30;2.17;;;-0.20;99.90;;;;;;5003689;28;20200;-63
2024/01/08 10:47:11;;;;;;;2.00;1.80;;;0.00;99.90;;;;;;4964386;28;20540;-63
2024/01/08 10:49:38;;;;;;;3.83;1.73;;;0.00;99.90;;;;;;4995152;28;20194;-62
2024/01/08 10:52:11;;;;;;;5.50;2.90;;;0.30;99.90;;;;;;4986952;28;20227;-63
2024/01/08 10:54:45;;;;;;;3.20;2.03;;;0.10;99.90;;;;;;5006756;28;20201;-63
2024/01/08 10:57:15;;;;;;;5.00;3.27;;;0.00;99.90;;;;;;4991684;28;20419;-62
2024/01/08 10:59:43;;;;;;;4.33;2.30;;;0.00;99.90;;;;;;4986359;28;20208;-63
2024/01/08 11:02:14;;;;;;;3.30;2.33;;;-0.10;99.90;;;;;;4937110;28;22444;-63
2024/01/08 11:04:42;;;;;;;3.47;2.47;;;-0.10;99.90;;;;;;5009446;28;20827;-62
2024/01/08 11:07:11;;;;;;;2.37;1.90;;;-0.90;99.90;;;;;;4991334;28;21274;-62
2024/01/08 11:09:37;;;;;;;8.20;2.13;;;-0.20;99.90;;;;;;5004942;28;20207;-63
2024/01/08 11:12:06;;;;;;;2.40;1.70;;;-0.40;99.90;;;;;;4991072;28;20204;-63
2024/01/08 11:14:34;;;;;;;5.10;2.10;;;-0.40;99.90;;;;;;4997170;28;20583;-63
2024/01/08 11:17:01;;;;;;;4.83;3.00;;;-0.40;99.90;;;;;;5004356;28;20233;-62
2024/01/08 11:19:28;;;;;;;2.80;2.17;;;-0.40;99.90;;;;;;4970762;28;20207;-62
2024/01/08 11:21:56;;;;;;;4.60;2.57;;;-0.40;99.90;;;;;;4999053;28;20767;-63
2024/01/08 11:24:24;;;;;;;4.93;2.50;;;-0.40;99.90;;;;;;4990115;28;20234;-62
2024/01/08 11:26:52;;;;;;;2.33;2.10;;;-0.40;99.90;;;;;;4994661;28;20580;-62
2024/01/08 11:29:20;;;;;;;5.20;2.40;;;-0.90;99.90;;;;;;4992193;28;20210;-62
2024/01/08 11:32:22;;;;;;;3.30;2.10;;;-0.40;99.90;;;;;;5004984;28;20270;-62
2024/01/08 11:34:57;;;;;;;2.73;2.00;;;-0.50;99.90;;;;;;4929695;28;20204;-62
2024/01/08 11:37:32;;;;;;;16.13;3.13;;;-0.50;99.90;;;;;;5001424;28;20239;-63
2024/01/08 11:40:02;;;;;;;3.00;2.37;;;0.00;99.90;;;;;;4992143;28;20195;-63
2024/01/08 11:42:30;;;;;;;4.20;2.33;;;-0.40;99.90;;;;;;4991882;28;20290;-63
2024/01/08 11:44:59;;;;;;;3.40;1.80;;;-0.60;99.90;;;;;;4989938;28;20251;-62
2024/01/08 11:47:27;;;;;;;3.93;2.57;;;-0.40;99.90;;;;;;4997737;28;20205;-62
2024/01/08 11:49:54;;;;;;;4.27;2.40;;;;;;;;;;4948003;28;20724;-62
2024/01/08 11:52:21;;;;;;;3.80;2.10;;;-0.50;99.90;;;;;;4989491;28;20214;-63
2024/01/08 11:54:52;;;;;;;2.30;1.67;;;-0.50;99.90;;;;;;4985491;28;21321;-63
2024/01/08 11:57:19;;;;;;;2.97;1.77;;;-0.50;99.90;;;;;;4980654;28;20257;-63
2024/01/08 11:59:47;;;;;;;2.20;1.83;;;-0.50;99.90;;;;;;4983345;28;20212;-63
2024/01/08 12:02:15;;;;;;;3.40;2.07;;;-0.50;99.90;;;;;;4986898;28;20210;-63
2024/01/08 12:04:51;;;;;;;4.93;2.33;;;-0.40;99.90;;;;;;4986946;28;20210;-63
2024/01/08 12:07:18;;;;;;;5.47;1.70;;;-0.40;99.90;;;;;;4982184;28;20465;-63
2024/01/08 12:09:47;;;;;;;4.43;1.90;;;-0.40;99.90;;;;;;4981309;28;20199;-63
2024/01/08 12:12:16;;;;;;;3.60;2.00;;;-0.40;99.90;;;;;;4983350;28;20295;-63
2024/01/08 12:14:43;;;;;;;3.43;1.97;;;-0.40;99.90;;;;;;4978140;28;20343;-63
2024/01/08 12:17:12;;;;;;;2.70;1.80;;;-0.40;99.90;;;;;;4985076;28;20223;-63
2024/01/08 12:19:41;;;;;;;7.40;1.80;;;-0.40;99.90;;;;;;4992072;28;20198;-63
2024/01/08 12:22:12;;;;;;;3.37;1.83;;;-0.30;99.90;;;;;;4958219;28;20506;-63
2024/01/08 12:24:40;;;;;;;2.43;1.90;;;-0.30;99.90;;;;;;4985404;28;20208;-63
2024/01/08 12:27:07;;;;;;;5.37;1.90;;;;;;;;;;4983178;28;20203;-63
2024/01/08 12:29:38;;;;;;;2.57;2.00;;;-0.30;99.90;;;;;;4989449;28;20647;-62
2024/01/08 12:32:06;;;;;;;3.97;1.90;;;-0.20;99.90;;;;;;4980612;28;20414;-62
2024/01/08 12:34:34;;;;;;;2.53;1.77;;;-1.40;99.90;;;;;;4988149;28;20280;-63
2024/01/08 12:37:01;;;;;;;3.13;1.93;;;-0.90;99.90;;;;;;4942904;28;20750;-63
2024/01/08 12:39:31;;;;;;;2.40;1.63;;;-0.20;99.90;;;;;;4963527;28;21039;-63
2024/01/08 12:41:58;;;;;;;4.43;2.30;;;-0.80;99.90;;;;;;4976593;28;20288;-63
2024/01/08 12:44:27;;;;;;;10.20;2.23;;;-0.20;99.90;;;;;;5002604;28;20201;-63
2024/01/08 12:46:55;;;;;;;4.37;1.83;;;-0.80;99.90;;;;;;4980975;28;20202;-62
2024/01/08 12:49:22;;;;;;;3.10;2.20;;;-0.20;99.90;;;;;;4991170;28;20233;-63
2024/01/08 12:51:49;;;;;;;2.80;1.93;;;;;;;;;;4982382;28;20351;-63